Time;durP1;ratioP1;P1;durP2;ratioP2;P2;SDS_P1;SDS_P2;PMS_P1;PMS_P2;Temp;Humidity;BMP_temperature;BMP_pressure;BME280_temperature;BME280_humidity;BME280_pressure;Samples;Min_cycle;Max_cycle;Signal;HPM_P1;HPM_P2
2023/07/06 00:01:03;;;;;;;4.37;4.10;;;14.70;99.90;;;;;;4963562;28;21018;-86
2023/07/06 00:03:31;;;;;;;4.87;4.67;;;14.60;99.90;;;;;;4970516;28;20739;-86
2023/07/06 00:05:57;;;;;;;4.50;4.17;;;14.60;99.90;;;;;;4965236;28;20438;-89
2023/07/06 00:08:22;;;;;;;4.70;4.33;;;14.50;99.90;;;;;;4954655;28;20540;-86
2023/07/06 00:10:51;;;;;;;3.97;3.87;;;14.50;99.90;;;;;;4959568;28;20193;-86
2023/07/06 00:13:20;;;;;;;4.37;4.17;;;14.50;99.90;;;;;;4949112;28;20272;-87
2023/07/06 00:15:48;;;;;;;4.20;4.00;;;14.50;99.90;;;;;;4960771;28;20445;-86
2023/07/06 00:18:15;;;;;;;4.50;4.33;;;14.50;99.90;;;;;;4963492;28;20948;-87
2023/07/06 00:20:41;;;;;;;4.20;3.90;;;14.50;99.90;;;;;;4964148;28;20469;-87
2023/07/06 00:23:09;;;;;;;4.23;4.03;;;14.50;99.90;;;;;;4963499;28;20441;-87
2023/07/06 00:25:36;;;;;;;4.20;3.90;;;14.40;99.90;;;;;;4964691;28;20425;-86
2023/07/06 00:28:03;;;;;;;4.90;4.63;;;14.40;99.90;;;;;;4956761;28;20517;-87
2023/07/06 00:31:21;;;;;;;4.70;4.37;;;14.50;99.90;;;;;;4960265;28;20438;-87
2023/07/06 00:33:17;;;;;;;4.33;4.13;;;14.50;99.90;;;;;;4947820;28;20461;-87
2023/07/06 00:35:44;;;;;;;3.77;3.70;;;14.60;99.90;;;;;;4959943;28;20492;-86
2023/07/06 00:38:14;;;;;;;4.57;4.20;;;14.60;99.90;;;;;;4972119;28;20456;-87
2023/07/06 00:40:42;;;;;;;4.83;4.63;;;14.60;99.90;;;;;;4968254;28;20457;-86
2023/07/06 00:43:11;;;;;;;4.13;3.83;;;14.60;99.90;;;;;;4958136;28;20466;-87
2023/07/06 00:45:38;;;;;;;4.60;4.50;;;14.60;99.90;;;;;;4953961;28;20457;-87
2023/07/06 00:48:08;;;;;;;4.13;3.93;;;14.60;99.90;;;;;;4964870;28;20461;-87
2023/07/06 00:50:33;;;;;;;5.37;4.70;;;14.60;99.90;;;;;;4970045;28;20559;-87
2023/07/06 00:53:06;;;;;;;5.60;5.00;;;14.60;99.90;;;;;;4961607;28;20491;-87
2023/07/06 00:55:36;;;;;;;6.10;4.73;;;14.60;99.90;;;;;;4964818;28;20185;-87
2023/07/06 00:58:18;;;;;;;4.30;4.20;;;14.60;99.90;;;;;;4961618;28;20454;-86
2023/07/06 01:00:44;;;;;;;4.27;4.07;;;14.60;99.90;;;;;;4962097;28;20523;-86
2023/07/06 01:03:10;;;;;;;4.87;4.47;;;14.50;99.90;;;;;;4959339;28;20501;-86
2023/07/06 01:05:39;;;;;;;5.03;4.57;;;14.50;99.90;;;;;;4961690;28;20434;-87
2023/07/06 01:08:11;;;;;;;5.20;5.00;;;14.50;99.90;;;;;;4958841;28;22000;-87
2023/07/06 01:10:39;;;;;;;5.00;4.80;;;14.60;99.90;;;;;;4959618;28;20537;-87
2023/07/06 01:20:04;;;;;;;4.60;4.30;;;14.50;99.90;;;;;;4947942;28;21114;-86
2023/07/06 01:23:08;;;;;;;5.10;4.80;;;14.50;99.90;;;;;;4952549;28;20709;-87
2023/07/06 01:25:53;;;;;;;7.57;5.40;;;14.50;99.90;;;;;;4961503;28;20984;-86
2023/07/06 01:28:48;;;;;;;5.50;5.20;;;14.40;99.90;;;;;;4958391;28;20449;-86
2023/07/06 01:31:22;;;;;;;8.23;6.00;;;14.40;99.90;;;;;;4958749;28;20446;-80
2023/07/06 01:34:02;;;;;;;5.57;5.17;;;14.40;99.90;;;;;;4968139;28;20429;-86
2023/07/06 01:36:38;;;;;;;6.53;5.37;;;14.40;99.90;;;;;;4969506;28;20441;-87
2023/07/06 01:39:14;;;;;;;6.00;5.03;;;14.30;99.90;;;;;;4958523;28;20479;-85
2023/07/06 01:41:40;;;;;;;5.20;5.00;;;14.30;99.90;;;;;;4955893;28;20436;-86
2023/07/06 01:44:11;;;;;;;6.10;5.70;;;14.30;99.90;;;;;;4964659;28;20430;-87
2023/07/06 01:46:37;;;;;;;6.33;5.13;;;14.30;99.90;;;;;;4957558;28;20446;-86
2023/07/06 01:49:05;;;;;;;5.30;5.00;;;14.30;99.90;;;;;;4968521;28;21051;-87
2023/07/06 01:51:51;;;;;;;5.03;4.63;;;14.30;99.90;;;;;;4965736;28;20460;-87
2023/07/06 01:54:21;;;;;;;4.97;4.63;;;14.30;99.90;;;;;;4955898;28;20444;-86
2023/07/06 01:56:53;;;;;;;5.57;5.07;;;14.20;99.90;;;;;;4962890;28;20446;-87
2023/07/06 01:59:22;;;;;;;6.20;5.87;;;14.20;99.90;;;;;;4967305;28;20549;-86
2023/07/06 02:02:00;;;;;;;5.33;5.13;;;14.10;99.90;;;;;;4968328;28;20469;-86
2023/07/06 02:04:32;;;;;;;5.07;4.70;;;14.10;99.90;;;;;;4972536;28;20421;-86
2023/07/06 02:07:03;;;;;;;6.60;5.13;;;14.10;99.90;;;;;;4968384;28;20491;-87
2023/07/06 02:09:29;;;;;;;8.40;5.80;;;14.00;99.90;;;;;;4977497;28;20916;-86
2023/07/06 02:11:55;;;;;;;6.20;5.80;;;14.00;99.90;;;;;;4965318;28;20466;-86
2023/07/06 02:14:21;;;;;;;5.90;5.50;;;13.90;99.90;;;;;;4971840;28;20524;-86
2023/07/06 02:16:50;;;;;;;6.17;5.60;;;13.80;99.90;;;;;;4975961;28;20469;-86
2023/07/06 02:19:20;;;;;;;7.37;5.90;;;13.90;99.90;;;;;;4963242;28;20473;-86
2023/07/06 02:21:48;;;;;;;6.53;6.20;;;13.90;99.90;;;;;;4941825;28;20449;-86
2023/07/06 02:24:13;;;;;;;5.97;5.40;;;13.90;99.90;;;;;;4965258;28;20441;-86
2023/07/06 02:26:39;;;;;;;6.60;6.20;;;13.80;99.90;;;;;;4960013;28;20454;-85
2023/07/06 02:29:04;;;;;;;5.80;5.50;;;13.80;99.90;;;;;;4968127;28;20257;-87
2023/07/06 02:31:30;;;;;;;6.33;5.83;;;13.70;99.90;;;;;;4963523;28;20201;-87
2023/07/06 02:33:56;;;;;;;7.03;6.70;;;13.70;99.90;;;;;;4962088;28;20781;-87
2023/07/06 02:36:21;;;;;;;7.17;6.57;;;13.70;99.90;;;;;;4964343;28;20202;-87
2023/07/06 02:38:47;;;;;;;8.07;7.47;;;13.70;99.90;;;;;;4964183;28;20213;-86
2023/07/06 02:41:14;;;;;;;9.60;7.80;;;13.70;99.90;;;;;;4963978;28;20193;-86
2023/07/06 02:43:41;;;;;;;8.50;7.90;;;13.80;99.90;;;;;;4968575;28;20196;-87
2023/07/06 02:46:06;;;;;;;7.20;6.07;;;13.70;99.90;;;;;;4970837;28;20458;-85
2023/07/06 02:48:32;;;;;;;6.47;6.17;;;13.70;99.90;;;;;;4969391;28;20812;-86
2023/07/06 02:50:58;;;;;;;9.33;6.80;;;13.70;99.90;;;;;;4962813;28;20193;-85
2023/07/06 02:53:23;;;;;;;8.50;7.30;;;13.60;99.90;;;;;;4964425;28;20230;-86
2023/07/06 02:55:49;;;;;;;6.40;5.97;;;13.60;99.90;;;;;;4966723;28;20459;-87
2023/07/06 02:58:15;;;;;;;7.27;6.53;;;13.70;99.90;;;;;;4966670;28;20186;-87
2023/07/06 03:00:41;;;;;;;6.97;6.40;;;13.70;99.90;;;;;;4967891;28;20217;-86
2023/07/06 03:03:08;;;;;;;5.90;5.40;;;13.70;99.90;;;;;;4955501;28;20460;-84
2023/07/06 03:05:36;;;;;;;5.97;5.57;;;13.70;99.90;;;;;;4961490;28;20363;-86
2023/07/06 03:08:04;;;;;;;6.20;5.47;;;13.60;99.90;;;;;;4963575;28;20465;-87
2023/07/06 03:10:32;;;;;;;7.13;6.37;;;13.60;99.90;;;;;;4964968;28;20470;-86
2023/07/06 03:12:59;;;;;;;7.03;6.63;;;13.70;99.90;;;;;;4963596;28;20453;-86
2023/07/06 03:15:25;;;;;;;6.87;5.97;;;13.60;99.90;;;;;;4950108;28;20441;-87
2023/07/06 03:17:51;;;;;;;8.17;6.30;;;13.60;99.90;;;;;;4964948;28;20473;-86
2023/07/06 03:20:22;;;;;;;7.40;6.70;;;13.70;99.90;;;;;;4959650;28;21014;-86
2023/07/06 03:22:51;;;;;;;7.23;6.80;;;13.70;99.90;;;;;;4949817;28;20434;-86
2023/07/06 03:25:18;;;;;;;6.67;5.87;;;13.60;99.90;;;;;;4959181;28;20434;-88
2023/07/06 03:27:46;;;;;;;7.30;6.50;;;13.60;99.90;;;;;;4962982;28;20433;-85
2023/07/06 03:30:14;;;;;;;5.73;5.27;;;13.60;99.90;;;;;;4955243;28;20478;-86
2023/07/06 03:32:39;;;;;;;6.37;5.90;;;13.50;99.90;;;;;;4964384;28;20505;-86
2023/07/06 03:35:08;;;;;;;8.70;6.70;;;13.60;99.90;;;;;;4955979;28;20587;-86
2023/07/06 03:37:33;;;;;;;8.83;6.17;;;13.60;99.90;;;;;;4957603;28;20190;-88
2023/07/06 03:39:59;;;;;;;6.33;5.80;;;13.60;99.90;;;;;;4953856;28;21420;-88
2023/07/06 03:42:24;;;;;;;6.23;5.33;;;13.60;99.90;;;;;;4961542;28;20584;-87
2023/07/06 03:44:53;;;;;;;6.10;5.60;;;13.60;99.90;;;;;;4958167;28;20391;-87
2023/07/06 03:47:19;;;;;;;8.20;6.13;;;13.60;99.90;;;;;;4953351;28;20197;-87
2023/07/06 03:49:44;;;;;;;9.67;5.80;;;13.50;99.90;;;;;;4960603;28;20432;-86
2023/07/06 03:52:13;;;;;;;7.03;6.43;;;13.50;99.90;;;;;;4962778;28;20201;-86
2023/07/06 03:54:39;;;;;;;6.83;6.27;;;13.50;99.90;;;;;;4962780;28;20323;-81
2023/07/06 03:57:05;;;;;;;5.27;5.03;;;13.40;99.90;;;;;;4963191;28;20531;-87
2023/07/06 03:59:31;;;;;;;8.63;6.47;;;13.40;99.90;;;;;;4971394;28;20205;-86
2023/07/06 04:01:57;;;;;;;6.73;4.90;;;13.50;99.90;;;;;;4974331;28;20469;-85
2023/07/06 04:04:28;;;;;;;6.23;5.80;;;13.50;99.90;;;;;;4974085;28;21038;-85
2023/07/06 04:06:55;;;;;;;5.30;4.90;;;13.50;99.90;;;;;;4979463;28;20647;-82
2023/07/06 04:09:21;;;;;;;5.97;5.50;;;13.50;99.90;;;;;;4967963;28;20425;-87
2023/07/06 04:11:47;;;;;;;5.33;5.00;;;13.50;99.90;;;;;;4956271;28;20453;-86
2023/07/06 04:14:13;;;;;;;6.57;5.57;;;13.60;99.90;;;;;;4962515;28;20452;-87
2023/07/06 04:16:40;;;;;;;5.33;5.10;;;13.60;99.90;;;;;;4966675;28;20193;-87
2023/07/06 04:19:06;;;;;;;5.97;5.37;;;13.60;99.90;;;;;;4960514;28;20605;-87
2023/07/06 04:21:32;;;;;;;7.07;5.20;;;13.70;99.90;;;;;;4961223;28;20438;-86
2023/07/06 04:23:57;;;;;;;6.17;5.77;;;13.70;99.90;;;;;;4938134;28;20487;-87
2023/07/06 04:26:24;;;;;;;5.47;5.07;;;13.80;99.90;;;;;;4962025;28;20189;-85
2023/07/06 04:28:50;;;;;;;6.17;5.67;;;13.80;99.90;;;;;;4961710;28;20622;-87
2023/07/06 04:31:16;;;;;;;5.40;5.10;;;13.80;99.90;;;;;;4959129;28;20469;-86
2023/07/06 04:33:45;;;;;;;8.27;5.33;;;13.90;99.90;;;;;;4962016;28;20497;-86
2023/07/06 04:36:12;;;;;;;9.57;5.33;;;13.90;99.90;;;;;;4961466;28;20987;-86
2023/07/06 04:38:38;;;;;;;5.57;5.20;;;13.90;99.90;;;;;;4944704;28;20453;-86
2023/07/06 04:41:04;;;;;;;8.10;5.20;;;14.00;99.90;;;;;;4961622;28;20469;-83
2023/07/06 04:43:30;;;;;;;6.93;4.60;;;14.20;99.90;;;;;;4956642;28;20535;-88
2023/07/06 04:45:56;;;;;;;5.77;5.17;;;14.50;99.90;;;;;;4961757;28;20464;-87
2023/07/06 04:48:26;;;;;;;6.77;4.40;;;14.60;99.90;;;;;;4957165;28;20664;-87
2023/07/06 04:50:53;;;;;;;4.23;3.97;;;14.80;99.90;;;;;;4967417;28;21084;-86
2023/07/06 04:53:20;;;;;;;3.90;3.70;;;15.10;99.90;;;;;;4960594;28;20445;-87
2023/07/06 04:55:47;;;;;;;5.07;4.77;;;15.60;99.90;;;;;;4960738;28;20517;-87
2023/07/06 04:58:12;;;;;;;3.60;3.50;;;15.70;99.90;;;;;;4958072;28;21015;-87
2023/07/06 05:00:39;;;;;;;3.67;3.47;;;16.00;99.90;;;;;;4961595;28;20487;-85
2023/07/06 05:03:07;;;;;;;4.80;4.30;;;16.20;99.90;;;;;;4958785;28;20712;-85
2023/07/06 05:05:45;;;;;;;3.77;3.50;;;16.30;99.90;;;;;;4962965;28;20462;-85
2023/07/06 05:08:19;;;;;;;3.73;3.53;;;16.60;99.90;;;;;;4956787;28;20850;-86
2023/07/06 05:10:50;;;;;;;4.23;3.73;;;16.80;99.90;;;;;;4960329;28;20504;-87
2023/07/06 05:13:16;;;;;;;4.20;3.40;;;16.90;99.90;;;;;;4959657;28;20446;-86
2023/07/06 05:15:42;;;;;;;6.00;4.23;;;17.30;99.90;;;;;;4961196;28;20960;-85
2023/07/06 05:18:08;;;;;;;4.37;3.87;;;17.40;99.90;;;;;;4960493;28;20441;-88
2023/07/06 05:20:34;;;;;;;4.00;3.70;;;17.60;99.90;;;;;;4961215;28;20843;-87
2023/07/06 05:22:59;;;;;;;4.90;3.57;;;17.80;99.90;;;;;;4955926;28;20438;-87
2023/07/06 05:25:26;;;;;;;3.67;3.40;;;17.90;99.90;;;;;;4963597;28;20174;-88
2023/07/06 05:27:52;;;;;;;3.33;3.10;;;17.90;99.90;;;;;;4954545;28;20267;-84
2023/07/06 05:30:18;;;;;;;4.03;3.80;;;18.00;99.90;;;;;;4964114;28;20936;-87
2023/07/06 05:32:43;;;;;;;3.50;3.07;;;18.00;99.90;;;;;;4961176;28;20468;-88
2023/07/06 05:35:10;;;;;;;7.27;3.33;;;17.90;99.90;;;;;;4960234;28;20430;-86
2023/07/06 05:37:36;;;;;;;5.10;3.73;;;17.90;99.90;;;;;;4957324;28;20203;-86
2023/07/06 05:40:06;;;;;;;3.97;3.50;;;18.00;99.90;;;;;;4942793;28;20472;-86
2023/07/06 05:42:32;;;;;;;3.63;3.43;;;18.00;99.90;;;;;;4954384;28;20472;-85
2023/07/06 05:44:57;;;;;;;6.57;3.30;;;17.80;99.90;;;;;;4943181;28;21730;-86
2023/07/06 05:47:23;;;;;;;8.70;3.90;;;17.90;99.90;;;;;;4954235;28;20437;-85
2023/07/06 05:49:48;;;;;;;3.70;3.50;;;17.60;99.90;;;;;;4960613;28;20609;-87
2023/07/06 05:52:14;;;;;;;6.90;3.30;;;17.60;99.90;;;;;;4960457;28;20586;-84
2023/07/06 05:54:40;;;;;;;3.20;2.90;;;17.80;99.90;;;;;;4957052;28;20656;-86
2023/07/06 05:57:09;;;;;;;7.33;4.67;;;17.90;99.90;;;;;;4960681;28;20182;-88
2023/07/06 05:59:36;;;;;;;4.23;3.83;;;17.80;99.90;;;;;;4964860;28;20206;-86
2023/07/06 06:02:04;;;;;;;4.30;3.43;;;17.80;99.90;;;;;;4958078;28;20532;-84
2023/07/06 06:04:30;;;;;;;3.10;2.90;;;17.90;99.90;;;;;;4957752;28;20449;-87
2023/07/06 06:06:56;;;;;;;3.73;3.27;;;18.00;99.90;;;;;;4960260;28;20463;-85
2023/07/06 06:09:25;;;;;;;3.30;3.00;;;18.20;99.90;;;;;;4939513;28;20254;-86
2023/07/06 06:11:51;;;;;;;4.37;3.60;;;18.30;99.90;;;;;;4955037;28;20461;-87
2023/07/06 06:14:17;;;;;;;3.77;3.50;;;18.70;99.90;;;;;;4948098;28;20507;-86
2023/07/06 06:16:43;;;;;;;7.03;3.17;;;19.10;99.90;;;;;;4949405;28;20439;-87
2023/07/06 06:19:09;;;;;;;5.00;3.07;;;19.30;99.90;;;;;;4947218;28;20484;-87
2023/07/06 06:21:35;;;;;;;4.27;3.60;;;19.50;99.90;;;;;;4959147;28;20918;-86
2023/07/06 06:24:02;;;;;;;3.50;3.40;;;19.60;99.90;;;;;;4946911;28;20435;-86
2023/07/06 06:26:29;;;;;;;3.73;3.43;;;19.90;99.90;;;;;;4964002;28;20269;-87
2023/07/06 06:28:57;;;;;;;4.43;3.30;;;19.80;99.90;;;;;;4958570;28;20469;-88
2023/07/06 06:31:23;;;;;;;7.43;2.93;;;20.10;99.90;;;;;;4943248;28;20449;-89
2023/07/06 06:33:49;;;;;;;4.87;3.13;;;20.50;99.90;;;;;;4967773;28;20565;-86
2023/07/06 06:36:18;;;;;;;4.07;3.10;;;21.10;99.90;;;;;;4966982;28;20446;-84
2023/07/06 06:38:44;;;;;;;3.23;2.93;;;21.30;99.90;;;;;;4964025;28;20194;-85
2023/07/06 06:41:10;;;;;;;5.70;3.20;;;21.60;99.90;;;;;;4966825;28;21180;-85
2023/07/06 06:43:38;;;;;;;5.00;3.73;;;21.30;99.90;;;;;;4966089;28;20568;-87
2023/07/06 06:46:05;;;;;;;7.20;3.53;;;21.80;99.90;;;;;;4969054;28;20878;-86
2023/07/06 06:48:32;;;;;;;3.83;3.10;;;22.40;99.90;;;;;;4968070;28;20479;-86
2023/07/06 06:50:58;;;;;;;4.13;3.53;;;22.70;99.90;;;;;;4962246;28;20594;-85
2023/07/06 06:53:26;;;;;;;4.73;3.53;;;22.70;99.90;;;;;;4963317;28;20441;-85
2023/07/06 06:55:52;;;;;;;3.57;3.27;;;22.10;99.90;;;;;;4961971;28;20450;-86
2023/07/06 06:58:18;;;;;;;3.20;3.00;;;21.70;99.90;;;;;;4965051;28;20434;-86
2023/07/06 07:00:44;;;;;;;4.63;3.20;;;21.90;99.90;;;;;;4949355;28;20469;-86
2023/07/06 07:03:11;;;;;;;5.80;3.73;;;22.10;99.90;;;;;;4963327;28;20532;-85
2023/07/06 07:05:37;;;;;;;3.37;3.17;;;22.30;99.60;;;;;;4968121;28;20174;-85
2023/07/06 07:08:03;;;;;;;3.20;2.90;;;22.60;99.30;;;;;;4965416;28;20457;-85
2023/07/06 07:10:29;;;;;;;3.53;3.23;;;23.10;97.30;;;;;;4968800;28;20435;-85
2023/07/06 07:12:55;;;;;;;6.47;3.40;;;23.20;97.10;;;;;;4949050;28;21596;-85
2023/07/06 07:15:21;;;;;;;5.93;3.30;;;23.10;96.70;;;;;;4963143;28;20775;-84
2023/07/06 07:17:47;;;;;;;6.93;3.57;;;23.20;96.20;;;;;;4959573;28;20799;-84
2023/07/06 07:20:14;;;;;;;2.60;2.60;;;23.30;95.20;;;;;;4943903;29;20861;-85
2023/07/06 07:22:40;;;;;;;6.43;3.03;;;23.60;95.60;;;;;;4948505;28;20189;-84
2023/07/06 07:25:08;;;;;;;5.20;2.80;;;23.50;94.90;;;;;;4956992;28;20538;-86
2023/07/06 07:27:34;;;;;;;4.53;3.20;;;24.00;94.50;;;;;;4966995;28;20427;-85
2023/07/06 07:30:09;;;;;;;5.40;3.67;;;24.20;92.90;;;;;;4959152;28;20444;-84
2023/07/06 07:32:34;;;;;;;4.00;3.23;;;24.50;92.20;;;;;;4957010;29;20729;-84
2023/07/06 07:35:01;;;;;;;5.07;3.93;;;24.80;98.70;;;;;;4939022;28;20459;-85
2023/07/06 07:37:26;;;;;;;4.73;3.00;;;24.30;95.70;;;;;;4944431;29;20269;-84
2023/07/06 07:39:52;;;;;;;6.03;2.90;;;24.60;94.40;;;;;;4930563;29;20495;-83
2023/07/06 07:42:19;;;;;;;3.83;3.10;;;24.80;94.20;;;;;;4944880;29;20190;-82
2023/07/06 07:44:45;;;;;;;2.93;2.83;;;25.10;94.90;;;;;;4937737;28;20685;-82
2023/07/06 07:47:18;;;;;;;4.80;3.60;;;25.40;92.10;;;;;;4942408;29;21182;-85
2023/07/06 07:49:45;;;;;;;2.80;2.60;;;25.40;91.70;;;;;;4951034;28;20406;-85
2023/07/06 07:52:12;;;;;;;4.00;2.70;;;26.00;92.30;;;;;;4951004;29;20423;-85
2023/07/06 07:54:39;;;;;;;2.97;2.77;;;25.90;91.70;;;;;;4946193;28;20447;-86
2023/07/06 07:57:06;;;;;;;3.40;3.10;;;25.90;90.70;;;;;;4953519;29;20810;-88
2023/07/06 07:59:33;;;;;;;4.50;2.93;;;25.80;91.10;;;;;;4938906;28;20493;-88
2023/07/06 08:01:58;;;;;;;5.03;3.33;;;25.70;89.80;;;;;;4942193;28;20434;-87
2023/07/06 08:04:24;;;;;;;2.50;2.30;;;25.30;90.90;;;;;;4940233;28;20458;-87
2023/07/06 08:06:50;;;;;;;3.77;3.10;;;25.50;89.50;;;;;;4941621;29;20210;-85
2023/07/06 08:09:17;;;;;;;4.20;2.37;;;25.70;88.10;;;;;;4948889;28;20207;-86
2023/07/06 08:11:46;;;;;;;3.03;2.83;;;26.20;83.90;;;;;;4957180;29;20423;-83
2023/07/06 08:14:13;;;;;;;4.67;3.10;;;25.80;85.40;;;;;;4955443;28;20442;-86
2023/07/06 08:16:42;;;;;;;6.27;3.20;;;25.80;87.00;;;;;;4955130;29;20776;-85
2023/07/06 08:19:08;;;;;;;4.33;2.43;;;26.40;84.60;;;;;;4958456;28;20505;-88
2023/07/06 08:21:34;;;;;;;4.33;2.50;;;26.70;80.50;;;;;;4967493;28;20561;-85
2023/07/06 08:24:00;;;;;;;2.47;2.30;;;26.60;81.90;;;;;;4965349;28;20438;-87
2023/07/06 08:26:29;;;;;;;2.87;2.30;;;27.60;67.20;;;;;;4960253;28;20194;-87
2023/07/06 08:28:54;;;;;;;2.40;2.30;;;27.70;67.40;;;;;;4967125;28;20465;-86
2023/07/06 08:31:20;;;;;;;3.87;3.00;;;27.60;61.60;;;;;;4944293;28;20730;-87
2023/07/06 08:33:47;;;;;;;2.60;2.40;;;26.60;63.10;;;;;;4965749;28;20265;-85
2023/07/06 08:36:15;;;;;;;5.10;3.37;;;26.60;63.90;;;;;;4962441;28;20244;-84
2023/07/06 08:38:43;;;;;;;2.33;2.23;;;27.40;62.00;;;;;;4965036;28;20433;-89
2023/07/06 08:41:34;;;;;;;3.47;2.83;;;28.00;60.70;;;;;;4964242;28;20477;-88
2023/07/06 08:44:05;;;;;;;3.67;2.60;;;27.70;59.10;;;;;;4954535;28;20492;-88
2023/07/06 08:46:38;;;;;;;4.07;3.20;;;26.60;59.60;;;;;;4965317;28;20537;-85
2023/07/06 08:49:12;;;;;;;2.13;2.00;;;26.90;60.00;;;;;;4942148;28;20670;-87
2023/07/06 08:51:38;;;;;;;2.47;2.27;;;27.70;59.40;;;;;;4965823;28;20721;-88
2023/07/06 08:54:16;;;;;;;1.90;1.90;;;28.30;58.60;;;;;;4963714;28;20438;-84
2023/07/06 08:56:42;;;;;;;3.50;2.40;;;28.10;58.20;;;;;;4964817;28;20421;-87
2023/07/06 08:59:18;;;;;;;4.83;1.80;;;28.40;56.70;;;;;;4961063;28;20915;-89
2023/07/06 09:01:45;;;;;;;2.97;2.57;;;28.30;56.80;;;;;;4962645;28;20654;-83
2023/07/06 09:04:16;;;;;;;2.43;2.23;;;28.70;55.80;;;;;;4958578;28;20796;-85
2023/07/06 09:06:48;;;;;;;2.67;2.40;;;28.00;55.70;;;;;;4967222;28;20422;-87
2023/07/06 09:09:13;;;;;;;2.37;2.27;;;28.10;56.70;;;;;;4956795;28;20454;-88
2023/07/06 09:11:43;;;;;;;3.13;2.40;;;28.30;56.10;;;;;;4966622;28;20433;-88
2023/07/06 09:14:11;;;;;;;2.67;2.47;;;29.20;55.10;;;;;;4961700;28;20213;-86
2023/07/06 09:16:45;;;;;;;3.63;2.67;;;30.10;54.60;;;;;;4961403;28;20806;-87
2023/07/06 09:19:13;;;;;;;2.90;2.73;;;28.90;53.30;;;;;;4949143;28;20483;-85
2023/07/06 09:21:40;;;;;;;2.23;2.13;;;28.60;53.20;;;;;;4961655;28;20443;-83
2023/07/06 09:24:07;;;;;;;3.00;2.30;;;27.90;54.60;;;;;;4952791;28;20409;-89
2023/07/06 09:26:35;;;;;;;3.23;2.47;;;27.70;55.30;;;;;;4961569;28;20437;-88
2023/07/06 09:29:22;;;;;;;4.30;2.10;;;28.10;56.20;;;;;;4962531;28;20779;-88
2023/07/06 09:31:48;;;;;;;2.33;2.20;;;28.50;53.80;;;;;;4970313;28;20463;-89
2023/07/06 09:34:31;;;;;;;2.10;2.00;;;28.30;53.30;;;;;;4969395;28;20500;-87
2023/07/06 09:36:57;;;;;;;4.30;2.50;;;28.30;53.10;;;;;;4964769;28;20828;-83
2023/07/06 09:39:24;;;;;;;2.23;2.17;;;28.30;53.20;;;;;;4967296;28;20457;-84
2023/07/06 09:41:51;;;;;;;2.83;2.23;;;27.70;53.40;;;;;;4969596;28;20186;-88
2023/07/06 09:44:29;;;;;;;4.00;2.40;;;27.70;54.20;;;;;;4968165;28;21037;-87
2023/07/06 09:46:56;;;;;;;2.50;2.30;;;28.30;53.90;;;;;;4963126;28;20457;-87
2023/07/06 09:49:42;;;;;;;2.40;2.20;;;29.20;53.20;;;;;;4966076;28;20433;-88
2023/07/06 09:52:12;;;;;;;2.57;2.33;;;29.60;52.70;;;;;;4966874;28;20466;-87
2023/07/06 09:54:49;;;;;;;2.77;2.30;;;29.10;51.70;;;;;;4968735;28;20466;-86
2023/07/06 09:57:15;;;;;;;2.17;2.17;;;29.00;52.10;;;;;;4968510;28;20500;-83
2023/07/06 09:59:44;;;;;;;3.43;2.20;;;28.70;51.90;;;;;;4966867;28;21023;-87
2023/07/06 10:02:31;;;;;;;2.27;1.87;;;29.40;50.90;;;;;;4965259;28;20548;-86
2023/07/06 10:05:07;;;;;;;2.37;2.17;;;29.60;50.60;;;;;;4966954;28;20912;-86
2023/07/06 10:08:05;;;;;;;2.80;2.10;;;30.60;49.90;;;;;;4960117;28;20441;-88
2023/07/06 10:10:43;;;;;;;1.87;1.87;;;30.50;49.40;;;;;;4967202;28;20537;-87
2023/07/06 10:13:28;;;;;;;2.23;2.13;;;29.40;49.50;;;;;;4980796;28;20441;-90
2023/07/06 10:16:17;;;;;;;2.17;2.07;;;28.50;50.40;;;;;;4972662;28;20447;-88
2023/07/06 10:18:52;;;;;;;2.20;2.20;;;28.10;50.50;;;;;;4968506;28;20461;-85
2023/07/06 10:21:37;;;;;;;2.60;2.40;;;28.00;51.20;;;;;;4964480;28;20477;-87
2023/07/06 10:24:30;;;;;;;2.20;1.90;;;27.20;51.80;;;;;;4965740;28;20427;-87
2023/07/06 10:26:59;;;;;;;1.90;1.80;;;27.60;52.00;;;;;;4962656;28;20497;-85
2023/07/06 10:29:41;;;;;;;2.23;2.13;;;27.10;52.20;;;;;;4973061;28;20436;-87
2023/07/06 10:32:16;;;;;;;2.43;2.33;;;27.30;52.90;;;;;;4964040;28;20504;-88
2023/07/06 10:34:58;;;;;;;2.23;2.10;;;26.90;53.40;;;;;;4967489;28;20488;-86
2023/07/06 10:37:27;;;;;;;1.93;1.80;;;27.10;53.50;;;;;;4979692;28;20440;-82
2023/07/06 10:40:00;;;;;;;1.93;1.93;;;28.00;52.10;;;;;;4976588;28;20477;-88
2023/07/06 10:42:31;;;;;;;2.20;2.10;;;28.70;50.90;;;;;;4969384;28;20548;-86
2023/07/06 10:44:58;;;;;;;2.30;2.20;;;28.50;51.30;;;;;;4969004;28;20481;-86
2023/07/06 10:47:36;;;;;;;2.40;2.17;;;27.60;51.50;;;;;;4940515;28;20809;-88
2023/07/06 10:50:07;;;;;;;1.73;1.73;;;28.30;51.40;;;;;;4964255;28;20457;-86
2023/07/06 10:52:38;;;;;;;2.80;2.60;;;28.90;50.40;;;;;;4966693;28;20434;-86
2023/07/06 10:55:27;;;;;;;1.90;1.80;;;29.10;49.80;;;;;;4979347;28;20440;-87
2023/07/06 10:58:26;;;;;;;1.90;1.80;;;28.80;49.80;;;;;;4977406;28;20494;-88
2023/07/06 11:00:54;;;;;;;1.90;1.80;;;28.90;49.60;;;;;;4977939;28;20469;-90
2023/07/06 11:03:27;;;;;;;1.63;1.63;;;29.30;49.30;;;;;;4969407;28;20821;-86
2023/07/06 11:06:06;;;;;;;1.90;1.80;;;29.60;48.60;;;;;;4966577;28;20476;-89
2023/07/06 11:09:09;;;;;;;2.10;2.00;;;29.30;48.00;;;;;;4964595;28;20595;-90
2023/07/06 11:11:42;;;;;;;1.87;1.77;;;29.70;48.00;;;;;;4957780;28;20739;-89
2023/07/06 11:14:31;;;;;;;1.40;1.40;;;30.20;47.40;;;;;;4967066;28;20456;-90
2023/07/06 11:17:10;;;;;;;2.03;1.93;;;30.40;47.00;;;;;;4959858;28;20450;-88
2023/07/06 11:19:42;;;;;;;1.90;1.77;;;30.20;46.90;;;;;;4964517;28;20501;-89
2023/07/06 11:22:16;;;;;;;2.13;2.03;;;30.50;47.00;;;;;;4970744;28;20796;-86
2023/07/06 11:24:48;;;;;;;1.90;1.80;;;31.10;46.70;;;;;;4973480;28;20428;-87
2023/07/06 11:27:29;;;;;;;1.73;1.73;;;31.80;45.70;;;;;;4969128;28;21400;-88
2023/07/06 11:30:22;;;;;;;1.47;1.37;;;31.70;44.90;;;;;;4968809;28;20918;-85
2023/07/06 11:33:06;;;;;;;1.60;1.60;;;31.50;45.20;;;;;;4946355;28;20445;-88
2023/07/06 11:35:58;;;;;;;2.10;1.40;;;31.20;44.40;;;;;;4960420;28;20442;-87
2023/07/06 11:38:50;;;;;;;2.37;2.17;;;31.30;44.80;;;;;;4973693;28;20425;-86
2023/07/06 11:41:24;;;;;;;1.80;1.70;;;32.00;44.40;;;;;;4966290;28;20550;-86
2023/07/06 11:44:11;;;;;;;1.50;1.50;;;31.70;44.30;;;;;;4976098;28;20454;-84
2023/07/06 11:46:47;;;;;;;4.30;4.00;;;30.70;44.30;;;;;;4974586;28;21092;-86
2023/07/06 11:49:40;;;;;;;1.73;1.63;;;31.30;44.30;;;;;;4975555;28;20807;-86
2023/07/06 11:52:14;;;;;;;1.70;1.70;;;32.30;44.10;;;;;;4985932;28;20433;-87
2023/07/06 11:54:49;;;;;;;2.13;2.03;;;32.30;43.00;;;;;;4971119;28;20497;-88
2023/07/06 11:57:29;;;;;;;2.03;2.00;;;31.30;43.60;;;;;;4984746;28;20954;-86
2023/07/06 12:02:48;;;;;;;1.67;1.63;;;29.30;44.70;;;;;;4963365;28;20619;-83
2023/07/06 12:05:38;;;;;;;1.80;1.70;;;28.90;45.80;;;;;;4966957;28;20527;-85
2023/07/06 12:08:27;;;;;;;1.57;1.57;;;28.50;45.80;;;;;;4964325;28;20480;-87
2023/07/06 12:11:16;;;;;;;1.43;1.43;;;29.30;46.00;;;;;;4949330;28;20491;-82
2023/07/06 12:13:44;;;;;;;1.67;1.67;;;30.30;45.30;;;;;;4966442;28;20425;-84
2023/07/06 12:16:20;;;;;;;2.17;1.63;;;30.90;44.30;;;;;;4960598;28;20439;-83
2023/07/06 12:18:55;;;;;;;8.30;4.27;;;30.70;44.40;;;;;;4968791;28;20492;-85
2023/07/06 12:21:34;;;;;;;2.37;2.20;;;30.70;44.60;;;;;;4961290;28;20455;-84
2023/07/06 12:24:06;;;;;;;2.83;2.73;;;31.60;43.50;;;;;;4961689;28;20431;-83
2023/07/06 12:26:34;;;;;;;1.30;1.30;;;31.50;42.00;;;;;;4965922;28;20448;-83
2023/07/06 12:29:04;;;;;;;2.00;1.50;;;31.10;42.30;;;;;;4973788;28;20433;-85
2023/07/06 12:31:30;;;;;;;1.70;1.67;;;30.50;43.20;;;;;;4950886;28;20465;-83
2023/07/06 12:33:57;;;;;;;1.50;1.50;;;30.40;43.50;;;;;;4966935;28;20531;-82
2023/07/06 12:36:33;;;;;;;2.30;2.20;;;30.80;43.80;;;;;;4945520;28;20567;-83
2023/07/06 12:39:01;;;;;;;1.37;1.37;;;30.70;44.10;;;;;;4958384;28;20524;-84
2023/07/06 12:41:34;;;;;;;1.80;1.80;;;30.20;43.70;;;;;;4963632;28;20446;-81
2023/07/06 12:44:00;;;;;;;2.23;1.77;;;29.60;43.80;;;;;;4965299;28;20433;-83
2023/07/06 12:46:31;;;;;;;1.47;1.47;;;29.50;43.70;;;;;;4965989;28;20449;-84
2023/07/06 12:49:01;;;;;;;1.60;1.60;;;30.00;44.20;;;;;;4961590;28;20434;-83
2023/07/06 12:51:28;;;;;;;1.77;1.77;;;29.80;43.40;;;;;;4958936;28;20455;-84
2023/07/06 12:53:57;;;;;;;1.83;1.80;;;30.20;43.50;;;;;;4965167;28;20441;-85
2023/07/06 12:56:24;;;;;;;1.50;1.50;;;31.00;42.90;;;;;;4962598;28;20975;-84
2023/07/06 12:58:57;;;;;;;1.33;1.23;;;31.80;42.90;;;;;;4963673;28;20820;-84
2023/07/06 13:01:30;;;;;;;1.30;1.30;;;32.80;41.60;;;;;;4960350;28;20806;-84
2023/07/06 13:04:10;;;;;;;1.33;1.33;;;33.50;41.00;;;;;;4958718;28;20422;-82
2023/07/06 13:06:53;;;;;;;1.73;1.63;;;32.50;40.30;;;;;;4957109;28;20607;-84
2023/07/06 13:09:30;;;;;;;1.40;1.40;;;31.80;41.90;;;;;;4958706;28;21008;-84
2023/07/06 13:12:01;;;;;;;1.37;1.30;;;32.20;41.20;;;;;;4961373;28;20971;-84
2023/07/06 13:14:34;;;;;;;2.10;1.50;;;31.50;40.40;;;;;;4962787;28;20564;-82